Wesley, Arkansas
Current Conditions -  °F | °C
As of 10:53 PM on Friday 28 Nov 2014 (Local Time) from KFYV Reporting Station
Clear Clear  
Wind Chill: 53°   Ceiling: Unl
Heat Index: 53°   Visibility: 10mi
Dew Point: 44°   Wind: 13mph
Humidity: 71%   Direction: 190°S
Pressure: 29.92"   Gusts: NA
Location:  36.03°N, 93.92°W
Report Text: KFYV 290453Z AUTO 19011KT 10SM CLR 12/07 A2992 RMK AO2 SLP128 T01170067
Loading
Personal Weather Stations






























Interactive Weather Map New forecast layout! Learn more

10-Day Weather Forecast

Advertisements
Track Severe Weather on mobile